sensor_id;sensor_type;location;lat;lon;timestamp;P1;durP1;ratioP1;P2;durP2;ratioP2
37051;SDS011;22964;52.272;13.356;2023-04-15T00:00:36;9.15;;;6.75;;
37051;SDS011;22964;52.272;13.356;2023-04-15T00:03:02;10.25;;;7.50;;
37051;SDS011;22964;52.272;13.356;2023-04-15T00:05:29;9.88;;;7.00;;
37051;SDS011;22964;52.272;13.356;2023-04-15T00:07:56;9.85;;;7.13;;
37051;SDS011;22964;52.272;13.356;2023-04-15T00:10:23;10.57;;;7.70;;
37051;SDS011;22964;52.272;13.356;2023-04-15T00:12:49;11.02;;;7.35;;
37051;SDS011;22964;52.272;13.356;2023-04-15T00:15:16;9.73;;;7.28;;
37051;SDS011;22964;52.272;13.356;2023-04-15T00:17:42;10.00;;;7.07;;
37051;SDS011;22964;52.272;13.356;2023-04-15T00:20:07;10.45;;;7.32;;
37051;SDS011;22964;52.272;13.356;2023-04-15T00:22:34;10.77;;;7.85;;
37051;SDS011;22964;52.272;13.356;2023-04-15T00:25:00;10.80;;;8.13;;
37051;SDS011;22964;52.272;13.356;2023-04-15T00:27:27;10.40;;;7.55;;
37051;SDS011;22964;52.272;13.356;2023-04-15T00:29:53;10.80;;;7.57;;
37051;SDS011;22964;52.272;13.356;2023-04-15T00:32:19;10.05;;;7.78;;
37051;SDS011;22964;52.272;13.356;2023-04-15T00:34:45;10.70;;;7.72;;
37051;SDS011;22964;52.272;13.356;2023-04-15T00:37:11;12.50;;;7.78;;
37051;SDS011;22964;52.272;13.356;2023-04-15T00:39:36;11.25;;;7.85;;
37051;SDS011;22964;52.272;13.356;2023-04-15T00:42:05;12.02;;;8.15;;
37051;SDS011;22964;52.272;13.356;2023-04-15T00:44:31;11.73;;;7.80;;
37051;SDS011;22964;52.272;13.356;2023-04-15T00:46:58;11.02;;;7.80;;
37051;SDS011;22964;52.272;13.356;2023-04-15T00:49:25;12.52;;;8.43;;
37051;SDS011;22964;52.272;13.356;2023-04-15T00:51:51;10.95;;;7.88;;
37051;SDS011;22964;52.272;13.356;2023-04-15T00:54:17;12.07;;;7.75;;
37051;SDS011;22964;52.272;13.356;2023-04-15T00:56:42;11.63;;;7.80;;
37051;SDS011;22964;52.272;13.356;2023-04-15T00:59:08;11.00;;;8.15;;
37051;SDS011;22964;52.272;13.356;2023-04-15T01:01:34;10.85;;;7.78;;
37051;SDS011;22964;52.272;13.356;2023-04-15T01:04:01;12.20;;;7.97;;
37051;SDS011;22964;52.272;13.356;2023-04-15T01:06:28;12.93;;;8.43;;
37051;SDS011;22964;52.272;13.356;2023-04-15T01:08:54;12.25;;;8.63;;
37051;SDS011;22964;52.272;13.356;2023-04-15T01:11:21;13.30;;;8.75;;
37051;SDS011;22964;52.272;13.356;2023-04-15T01:13:48;11.40;;;8.57;;
37051;SDS011;22964;52.272;13.356;2023-04-15T01:16:16;13.93;;;9.40;;
37051;SDS011;22964;52.272;13.356;2023-04-15T01:18:43;11.27;;;8.32;;
37051;SDS011;22964;52.272;13.356;2023-04-15T01:21:09;13.00;;;8.93;;
37051;SDS011;22964;52.272;13.356;2023-04-15T01:23:36;14.52;;;9.05;;
37051;SDS011;22964;52.272;13.356;2023-04-15T01:26:04;11.90;;;8.85;;
37051;SDS011;22964;52.272;13.356;2023-04-15T01:28:32;12.85;;;9.35;;
37051;SDS011;22964;52.272;13.356;2023-04-15T01:31:10;15.07;;;10.02;;
37051;SDS011;22964;52.272;13.356;2023-04-15T01:33:41;13.27;;;9.40;;
37051;SDS011;22964;52.272;13.356;2023-04-15T01:36:08;14.52;;;10.07;;
37051;SDS011;22964;52.272;13.356;2023-04-15T01:38:35;13.73;;;9.85;;
37051;SDS011;22964;52.272;13.356;2023-04-15T01:41:01;17.10;;;10.32;;
37051;SDS011;22964;52.272;13.356;2023-04-15T01:43:35;13.95;;;9.75;;
37051;SDS011;22964;52.272;13.356;2023-04-15T01:46:01;14.18;;;10.32;;
37051;SDS011;22964;52.272;13.356;2023-04-15T01:48:27;15.10;;;10.00;;
37051;SDS011;22964;52.272;13.356;2023-04-15T01:50:55;16.15;;;10.43;;
37051;SDS011;22964;52.272;13.356;2023-04-15T01:53:22;15.15;;;10.20;;
37051;SDS011;22964;52.272;13.356;2023-04-15T01:55:49;15.75;;;11.05;;
37051;SDS011;22964;52.272;13.356;2023-04-15T01:58:16;15.98;;;10.30;;
37051;SDS011;22964;52.272;13.356;2023-04-15T02:00:46;16.90;;;10.80;;
37051;SDS011;22964;52.272;13.356;2023-04-15T02:03:12;16.15;;;10.45;;
37051;SDS011;22964;52.272;13.356;2023-04-15T02:05:37;16.13;;;10.48;;
37051;SDS011;22964;52.272;13.356;2023-04-15T02:08:03;18.63;;;10.48;;
37051;SDS011;22964;52.272;13.356;2023-04-15T02:10:29;15.18;;;10.23;;
37051;SDS011;22964;52.272;13.356;2023-04-15T02:12:55;17.05;;;10.82;;
37051;SDS011;22964;52.272;13.356;2023-04-15T02:15:21;15.18;;;10.13;;
37051;SDS011;22964;52.272;13.356;2023-04-15T02:17:48;15.20;;;10.18;;
37051;SDS011;22964;52.272;13.356;2023-04-15T02:20:17;17.02;;;10.43;;
37051;SDS011;22964;52.272;13.356;2023-04-15T02:22:44;15.02;;;10.43;;
37051;SDS011;22964;52.272;13.356;2023-04-15T02:25:09;16.38;;;11.20;;
37051;SDS011;22964;52.272;13.356;2023-04-15T02:27:35;17.55;;;11.25;;
37051;SDS011;22964;52.272;13.356;2023-04-15T02:30:01;18.00;;;11.52;;
37051;SDS011;22964;52.272;13.356;2023-04-15T02:32:27;15.88;;;10.73;;
37051;SDS011;22964;52.272;13.356;2023-04-15T02:34:54;18.63;;;11.70;;
37051;SDS011;22964;52.272;13.356;2023-04-15T02:37:20;18.27;;;11.32;;
37051;SDS011;22964;52.272;13.356;2023-04-15T02:39:46;19.33;;;11.48;;
37051;SDS011;22964;52.272;13.356;2023-04-15T02:42:13;16.80;;;11.35;;
37051;SDS011;22964;52.272;13.356;2023-04-15T02:44:40;17.85;;;11.25;;
37051;SDS011;22964;52.272;13.356;2023-04-15T02:47:06;19.13;;;11.90;;
37051;SDS011;22964;52.272;13.356;2023-04-15T02:49:31;17.92;;;11.73;;
37051;SDS011;22964;52.272;13.356;2023-04-15T02:51:59;17.60;;;11.57;;
37051;SDS011;22964;52.272;13.356;2023-04-15T02:54:24;16.60;;;11.02;;
37051;SDS011;22964;52.272;13.356;2023-04-15T02:56:53;19.38;;;11.40;;
37051;SDS011;22964;52.272;13.356;2023-04-15T02:59:20;18.63;;;11.75;;
37051;SDS011;22964;52.272;13.356;2023-04-15T03:01:46;18.50;;;11.95;;
37051;SDS011;22964;52.272;13.356;2023-04-15T03:04:12;18.63;;;11.98;;
37051;SDS011;22964;52.272;13.356;2023-04-15T03:06:38;19.67;;;12.23;;
37051;SDS011;22964;52.272;13.356;2023-04-15T03:09:06;20.58;;;11.88;;
37051;SDS011;22964;52.272;13.356;2023-04-15T03:11:34;19.13;;;12.32;;
37051;SDS011;22964;52.272;13.356;2023-04-15T03:14:06;18.83;;;11.15;;
37051;SDS011;22964;52.272;13.356;2023-04-15T03:16:34;18.80;;;11.13;;
37051;SDS011;22964;52.272;13.356;2023-04-15T03:19:00;18.73;;;11.77;;
37051;SDS011;22964;52.272;13.356;2023-04-15T03:21:25;20.02;;;11.88;;
37051;SDS011;22964;52.272;13.356;2023-04-15T03:23:52;21.35;;;11.70;;
37051;SDS011;22964;52.272;13.356;2023-04-15T03:26:27;21.73;;;12.52;;
37051;SDS011;22964;52.272;13.356;2023-04-15T03:28:57;19.88;;;11.45;;
37051;SDS011;22964;52.272;13.356;2023-04-15T03:31:23;17.73;;;11.43;;
37051;SDS011;22964;52.272;13.356;2023-04-15T03:33:49;18.50;;;12.00;;
37051;SDS011;22964;52.272;13.356;2023-04-15T03:36:15;21.08;;;12.27;;
37051;SDS011;22964;52.272;13.356;2023-04-15T03:38:41;19.83;;;11.10;;
37051;SDS011;22964;52.272;13.356;2023-04-15T03:41:07;19.55;;;12.13;;
37051;SDS011;22964;52.272;13.356;2023-04-15T03:43:33;17.42;;;11.05;;
37051;SDS011;22964;52.272;13.356;2023-04-15T03:45:59;18.70;;;12.00;;
37051;SDS011;22964;52.272;13.356;2023-04-15T03:48:26;18.80;;;11.52;;
37051;SDS011;22964;52.272;13.356;2023-04-15T03:50:51;19.27;;;12.13;;
37051;SDS011;22964;52.272;13.356;2023-04-15T03:53:17;20.00;;;11.93;;
37051;SDS011;22964;52.272;13.356;2023-04-15T03:55:43;19.20;;;11.98;;
37051;SDS011;22964;52.272;13.356;2023-04-15T03:58:09;23.00;;;12.95;;
37051;SDS011;22964;52.272;13.356;2023-04-15T04:00:37;18.45;;;11.32;;
37051;SDS011;22964;52.272;13.356;2023-04-15T04:03:03;18.58;;;11.73;;
37051;SDS011;22964;52.272;13.356;2023-04-15T04:05:29;18.58;;;11.20;;
37051;SDS011;22964;52.272;13.356;2023-04-15T04:07:55;18.98;;;11.55;;
37051;SDS011;22964;52.272;13.356;2023-04-15T04:10:21;18.08;;;11.10;;
37051;SDS011;22964;52.272;13.356;2023-04-15T04:12:46;20.60;;;11.77;;
37051;SDS011;22964;52.272;13.356;2023-04-15T04:15:12;20.20;;;11.63;;
37051;SDS011;22964;52.272;13.356;2023-04-15T04:17:38;17.45;;;11.25;;
37051;SDS011;22964;52.272;13.356;2023-04-15T04:20:04;18.70;;;11.45;;
37051;SDS011;22964;52.272;13.356;2023-04-15T04:22:30;18.58;;;11.18;;
37051;SDS011;22964;52.272;13.356;2023-04-15T04:25:01;19.45;;;11.13;;
37051;SDS011;22964;52.272;13.356;2023-04-15T04:27:27;18.13;;;11.43;;
37051;SDS011;22964;52.272;13.356;2023-04-15T04:29:52;20.58;;;11.68;;
37051;SDS011;22964;52.272;13.356;2023-04-15T04:32:18;15.75;;;10.63;;
37051;SDS011;22964;52.272;13.356;2023-04-15T04:34:44;16.38;;;10.68;;
37051;SDS011;22964;52.272;13.356;2023-04-15T04:37:09;17.08;;;10.48;;
37051;SDS011;22964;52.272;13.356;2023-04-15T04:39:35;17.77;;;10.63;;
37051;SDS011;22964;52.272;13.356;2023-04-15T04:42:01;16.58;;;10.45;;
37051;SDS011;22964;52.272;13.356;2023-04-15T04:44:26;18.73;;;10.80;;
37051;SDS011;22964;52.272;13.356;2023-04-15T04:46:52;15.85;;;10.00;;
37051;SDS011;22964;52.272;13.356;2023-04-15T04:49:18;19.65;;;10.48;;
37051;SDS011;22964;52.272;13.356;2023-04-15T04:51:43;16.20;;;10.07;;
37051;SDS011;22964;52.272;13.356;2023-04-15T04:54:11;17.48;;;10.45;;
37051;SDS011;22964;52.272;13.356;2023-04-15T04:56:36;15.50;;;9.65;;
37051;SDS011;22964;52.272;13.356;2023-04-15T04:59:04;17.48;;;10.35;;
37051;SDS011;22964;52.272;13.356;2023-04-15T05:01:29;16.27;;;10.75;;
37051;SDS011;22964;52.272;13.356;2023-04-15T05:03:55;17.77;;;10.85;;
37051;SDS011;22964;52.272;13.356;2023-04-15T05:06:21;15.88;;;10.38;;
37051;SDS011;22964;52.272;13.356;2023-04-15T05:08:47;17.48;;;10.32;;
37051;SDS011;22964;52.272;13.356;2023-04-15T05:11:12;17.17;;;10.20;;
37051;SDS011;22964;52.272;13.356;2023-04-15T05:13:38;18.10;;;10.70;;
37051;SDS011;22964;52.272;13.356;2023-04-15T05:16:04;17.00;;;10.10;;
37051;SDS011;22964;52.272;13.356;2023-04-15T05:18:30;16.30;;;10.10;;
37051;SDS011;22964;52.272;13.356;2023-04-15T05:20:56;16.70;;;10.38;;
37051;SDS011;22964;52.272;13.356;2023-04-15T05:23:22;17.30;;;10.68;;
37051;SDS011;22964;52.272;13.356;2023-04-15T05:25:48;16.42;;;10.32;;
37051;SDS011;22964;52.272;13.356;2023-04-15T05:28:13;15.85;;;10.27;;
37051;SDS011;22964;52.272;13.356;2023-04-15T05:30:39;19.10;;;9.98;;
37051;SDS011;22964;52.272;13.356;2023-04-15T05:33:05;15.95;;;10.18;;
37051;SDS011;22964;52.272;13.356;2023-04-15T05:35:31;17.02;;;9.82;;
37051;SDS011;22964;52.272;13.356;2023-04-15T05:37:57;15.07;;;9.88;;
37051;SDS011;22964;52.272;13.356;2023-04-15T05:40:22;16.75;;;10.25;;
37051;SDS011;22964;52.272;13.356;2023-04-15T05:42:48;15.30;;;10.05;;
37051;SDS011;22964;52.272;13.356;2023-04-15T05:45:14;15.02;;;9.85;;
37051;SDS011;22964;52.272;13.356;2023-04-15T05:47:39;16.67;;;9.45;;
37051;SDS011;22964;52.272;13.356;2023-04-15T05:50:05;16.50;;;9.52;;
37051;SDS011;22964;52.272;13.356;2023-04-15T05:52:32;13.23;;;9.40;;
37051;SDS011;22964;52.272;13.356;2023-04-15T05:54:58;14.85;;;9.60;;
37051;SDS011;22964;52.272;13.356;2023-04-15T05:57:24;12.95;;;9.10;;
37051;SDS011;22964;52.272;13.356;2023-04-15T05:59:49;15.75;;;9.15;;
37051;SDS011;22964;52.272;13.356;2023-04-15T06:02:19;14.95;;;9.50;;
37051;SDS011;22964;52.272;13.356;2023-04-15T06:04:45;15.05;;;9.57;;
37051;SDS011;22964;52.272;13.356;2023-04-15T06:07:11;12.63;;;8.70;;
37051;SDS011;22964;52.272;13.356;2023-04-15T06:09:36;13.73;;;9.10;;
37051;SDS011;22964;52.272;13.356;2023-04-15T06:12:02;12.52;;;8.40;;
37051;SDS011;22964;52.272;13.356;2023-04-15T06:14:28;16.27;;;8.73;;
37051;SDS011;22964;52.272;13.356;2023-04-15T06:16:54;12.48;;;9.07;;
37051;SDS011;22964;52.272;13.356;2023-04-15T06:19:19;13.90;;;8.90;;
37051;SDS011;22964;52.272;13.356;2023-04-15T06:21:45;14.27;;;9.30;;
37051;SDS011;22964;52.272;13.356;2023-04-15T06:24:11;15.40;;;8.93;;
37051;SDS011;22964;52.272;13.356;2023-04-15T06:26:37;13.57;;;9.02;;
37051;SDS011;22964;52.272;13.356;2023-04-15T06:29:02;14.43;;;8.68;;
37051;SDS011;22964;52.272;13.356;2023-04-15T06:31:28;13.20;;;9.30;;
37051;SDS011;22964;52.272;13.356;2023-04-15T06:33:54;11.65;;;8.43;;
37051;SDS011;22964;52.272;13.356;2023-04-15T06:36:20;11.60;;;8.38;;
37051;SDS011;22964;52.272;13.356;2023-04-15T06:38:46;11.82;;;8.10;;
37051;SDS011;22964;52.272;13.356;2023-04-15T06:41:11;11.80;;;8.25;;
37051;SDS011;22964;52.272;13.356;2023-04-15T06:43:37;13.57;;;8.35;;
37051;SDS011;22964;52.272;13.356;2023-04-15T06:46:03;13.13;;;8.45;;
37051;SDS011;22964;52.272;13.356;2023-04-15T06:48:29;14.68;;;8.57;;
37051;SDS011;22964;52.272;13.356;2023-04-15T06:50:55;12.23;;;8.13;;
37051;SDS011;22964;52.272;13.356;2023-04-15T06:53:23;13.23;;;8.48;;
37051;SDS011;22964;52.272;13.356;2023-04-15T06:55:51;12.50;;;8.52;;
37051;SDS011;22964;52.272;13.356;2023-04-15T06:58:16;12.13;;;8.15;;
37051;SDS011;22964;52.272;13.356;2023-04-15T07:00:42;10.68;;;7.55;;
37051;SDS011;22964;52.272;13.356;2023-04-15T07:03:08;11.18;;;7.80;;
37051;SDS011;22964;52.272;13.356;2023-04-15T07:05:36;13.00;;;8.35;;
37051;SDS011;22964;52.272;13.356;2023-04-15T07:08:03;13.65;;;8.38;;
37051;SDS011;22964;52.272;13.356;2023-04-15T07:10:28;12.65;;;8.60;;
37051;SDS011;22964;52.272;13.356;2023-04-15T07:12:55;14.60;;;9.10;;
37051;SDS011;22964;52.272;13.356;2023-04-15T07:15:21;13.15;;;9.02;;
37051;SDS011;22964;52.272;13.356;2023-04-15T07:17:47;12.32;;;8.32;;
37051;SDS011;22964;52.272;13.356;2023-04-15T07:20:13;10.45;;;8.02;;
37051;SDS011;22964;52.272;13.356;2023-04-15T07:22:39;12.05;;;8.82;;
37051;SDS011;22964;52.272;13.356;2023-04-15T07:25:05;14.23;;;8.95;;
37051;SDS011;22964;52.272;13.356;2023-04-15T07:27:31;15.25;;;8.50;;
37051;SDS011;22964;52.272;13.356;2023-04-15T07:29:57;11.63;;;8.05;;
37051;SDS011;22964;52.272;13.356;2023-04-15T07:32:23;11.90;;;8.68;;
37051;SDS011;22964;52.272;13.356;2023-04-15T07:34:49;13.07;;;9.05;;
37051;SDS011;22964;52.272;13.356;2023-04-15T07:37:14;11.57;;;8.48;;
37051;SDS011;22964;52.272;13.356;2023-04-15T07:39:40;14.27;;;8.98;;
37051;SDS011;22964;52.272;13.356;2023-04-15T07:42:06;10.77;;;7.93;;
37051;SDS011;22964;52.272;13.356;2023-04-15T07:44:32;13.30;;;9.00;;
37051;SDS011;22964;52.272;13.356;2023-04-15T07:46:58;12.93;;;8.70;;
37051;SDS011;22964;52.272;13.356;2023-04-15T07:49:24;10.32;;;8.20;;
37051;SDS011;22964;52.272;13.356;2023-04-15T07:51:50;13.27;;;9.20;;
37051;SDS011;22964;52.272;13.356;2023-04-15T07:54:16;12.02;;;8.85;;
37051;SDS011;22964;52.272;13.356;2023-04-15T07:56:41;11.75;;;8.30;;
37051;SDS011;22964;52.272;13.356;2023-04-15T07:59:07;13.10;;;8.20;;
37051;SDS011;22964;52.272;13.356;2023-04-15T08:01:34;12.23;;;8.75;;
37051;SDS011;22964;52.272;13.356;2023-04-15T08:04:00;10.95;;;8.27;;
37051;SDS011;22964;52.272;13.356;2023-04-15T08:06:27;12.57;;;8.60;;
37051;SDS011;22964;52.272;13.356;2023-04-15T08:08:53;13.05;;;8.43;;
37051;SDS011;22964;52.272;13.356;2023-04-15T08:11:19;12.25;;;8.95;;
37051;SDS011;22964;52.272;13.356;2023-04-15T08:13:45;10.82;;;8.45;;
37051;SDS011;22964;52.272;13.356;2023-04-15T08:16:12;11.63;;;8.73;;
37051;SDS011;22964;52.272;13.356;2023-04-15T08:18:50;13.13;;;8.85;;
37051;SDS011;22964;52.272;13.356;2023-04-15T08:21:17;11.13;;;8.63;;
37051;SDS011;22964;52.272;13.356;2023-04-15T08:23:43;11.65;;;8.82;;
37051;SDS011;22964;52.272;13.356;2023-04-15T08:26:11;12.20;;;9.38;;
37051;SDS011;22964;52.272;13.356;2023-04-15T08:28:37;13.85;;;9.32;;
37051;SDS011;22964;52.272;13.356;2023-04-15T08:31:04;13.68;;;9.38;;
37051;SDS011;22964;52.272;13.356;2023-04-15T08:33:30;14.02;;;9.27;;
37051;SDS011;22964;52.272;13.356;2023-04-15T08:35:56;13.18;;;9.02;;
37051;SDS011;22964;52.272;13.356;2023-04-15T08:38:22;12.05;;;8.93;;
37051;SDS011;22964;52.272;13.356;2023-04-15T08:40:48;13.27;;;9.52;;
37051;SDS011;22964;52.272;13.356;2023-04-15T08:43:14;13.93;;;9.48;;
37051;SDS011;22964;52.272;13.356;2023-04-15T08:45:46;10.18;;;7.85;;
37051;SDS011;22964;52.272;13.356;2023-04-15T08:48:15;15.25;;;10.00;;
37051;SDS011;22964;52.272;13.356;2023-04-15T08:50:41;13.02;;;9.35;;
37051;SDS011;22964;52.272;13.356;2023-04-15T08:53:07;14.43;;;9.10;;
37051;SDS011;22964;52.272;13.356;2023-04-15T08:55:35;12.75;;;8.73;;
37051;SDS011;22964;52.272;13.356;2023-04-15T08:58:03;12.73;;;9.27;;
37051;SDS011;22964;52.272;13.356;2023-04-15T09:00:30;14.00;;;9.48;;
37051;SDS011;22964;52.272;13.356;2023-04-15T09:02:58;13.65;;;9.32;;
37051;SDS011;22964;52.272;13.356;2023-04-15T09:05:23;14.90;;;10.10;;
37051;SDS011;22964;52.272;13.356;2023-04-15T09:07:50;12.48;;;9.80;;
37051;SDS011;22964;52.272;13.356;2023-04-15T09:10:16;12.60;;;9.55;;
37051;SDS011;22964;52.272;13.356;2023-04-15T09:12:42;12.93;;;10.18;;
37051;SDS011;22964;52.272;13.356;2023-04-15T09:15:11;12.15;;;8.88;;
37051;SDS011;22964;52.272;13.356;2023-04-15T09:17:43;13.02;;;8.65;;
37051;SDS011;22964;52.272;13.356;2023-04-15T09:20:13;11.65;;;9.60;;
37051;SDS011;22964;52.272;13.356;2023-04-15T09:22:40;11.27;;;8.60;;
37051;SDS011;22964;52.272;13.356;2023-04-15T09:27:52;12.32;;;9.20;;
37051;SDS011;22964;52.272;13.356;2023-04-15T09:30:19;11.73;;;8.60;;
37051;SDS011;22964;52.272;13.356;2023-04-15T09:32:52;10.55;;;7.75;;
37051;SDS011;22964;52.272;13.356;2023-04-15T09:35:20;10.77;;;8.38;;
37051;SDS011;22964;52.272;13.356;2023-04-15T09:37:47;10.75;;;8.20;;
37051;SDS011;22964;52.272;13.356;2023-04-15T09:40:13;10.80;;;8.13;;
37051;SDS011;22964;52.272;13.356;2023-04-15T09:42:55;11.13;;;8.27;;
37051;SDS011;22964;52.272;13.356;2023-04-15T09:45:21;11.77;;;8.35;;
37051;SDS011;22964;52.272;13.356;2023-04-15T09:47:47;10.20;;;8.07;;
37051;SDS011;22964;52.272;13.356;2023-04-15T09:50:15;12.15;;;8.18;;
37051;SDS011;22964;52.272;13.356;2023-04-15T09:52:42;13.02;;;8.45;;
37051;SDS011;22964;52.272;13.356;2023-04-15T09:55:08;9.75;;;7.65;;
37051;SDS011;22964;52.272;13.356;2023-04-15T09:57:35;10.70;;;7.57;;
37051;SDS011;22964;52.272;13.356;2023-04-15T10:00:05;10.02;;;7.82;;
37051;SDS011;22964;52.272;13.356;2023-04-15T10:02:32;10.77;;;7.97;;
37051;SDS011;22964;52.272;13.356;2023-04-15T10:04:58;10.45;;;7.28;;
37051;SDS011;22964;52.272;13.356;2023-04-15T10:07:26;9.15;;;7.00;;
37051;SDS011;22964;52.272;13.356;2023-04-15T10:09:54;10.50;;;7.85;;
37051;SDS011;22964;52.272;13.356;2023-04-15T10:12:21;8.77;;;7.15;;
37051;SDS011;22964;52.272;13.356;2023-04-15T10:14:47;9.63;;;7.40;;
37051;SDS011;22964;52.272;13.356;2023-04-15T10:17:17;10.43;;;7.50;;
37051;SDS011;22964;52.272;13.356;2023-04-15T10:19:46;9.15;;;7.13;;
37051;SDS011;22964;52.272;13.356;2023-04-15T10:22:13;9.55;;;7.10;;
37051;SDS011;22964;52.272;13.356;2023-04-15T10:24:39;9.70;;;7.53;;
37051;SDS011;22964;52.272;13.356;2023-04-15T10:27:06;9.93;;;7.40;;
37051;SDS011;22964;52.272;13.356;2023-04-15T10:29:33;11.00;;;7.38;;
37051;SDS011;22964;52.272;13.356;2023-04-15T10:31:59;8.93;;;6.55;;
37051;SDS011;22964;52.272;13.356;2023-04-15T10:34:26;9.10;;;6.80;;
37051;SDS011;22964;52.272;13.356;2023-04-15T10:36:57;10.00;;;6.57;;
37051;SDS011;22964;52.272;13.356;2023-04-15T10:42:09;10.43;;;6.88;;
37051;SDS011;22964;52.272;13.356;2023-04-15T10:44:35;11.25;;;6.90;;
37051;SDS011;22964;52.272;13.356;2023-04-15T10:47:05;8.23;;;6.43;;
37051;SDS011;22964;52.272;13.356;2023-04-15T10:52:11;8.05;;;6.07;;
37051;SDS011;22964;52.272;13.356;2023-04-15T10:54:38;7.85;;;6.30;;
37051;SDS011;22964;52.272;13.356;2023-04-15T11:02:04;8.35;;;6.18;;
37051;SDS011;22964;52.272;13.356;2023-04-15T11:12:59;7.95;;;5.75;;
37051;SDS011;22964;52.272;13.356;2023-04-15T11:15:37;8.07;;;5.30;;
37051;SDS011;22964;52.272;13.356;2023-04-15T11:18:10;7.80;;;6.22;;
37051;SDS011;22964;52.272;13.356;2023-04-15T11:20:37;8.63;;;6.32;;
37051;SDS011;22964;52.272;13.356;2023-04-15T11:23:05;6.43;;;5.57;;
37051;SDS011;22964;52.272;13.356;2023-04-15T11:25:32;7.82;;;5.88;;
37051;SDS011;22964;52.272;13.356;2023-04-15T11:27:59;8.18;;;6.13;;
37051;SDS011;22964;52.272;13.356;2023-04-15T11:30:27;7.15;;;5.80;;
37051;SDS011;22964;52.272;13.356;2023-04-15T11:33:04;7.00;;;5.78;;
37051;SDS011;22964;52.272;13.356;2023-04-15T11:35:36;8.35;;;6.32;;
37051;SDS011;22964;52.272;13.356;2023-04-15T11:38:07;8.90;;;6.53;;
37051;SDS011;22964;52.272;13.356;2023-04-15T11:40:34;8.10;;;5.88;;
37051;SDS011;22964;52.272;13.356;2023-04-15T11:43:05;7.20;;;5.70;;
37051;SDS011;22964;52.272;13.356;2023-04-15T11:45:33;7.67;;;5.80;;
37051;SDS011;22964;52.272;13.356;2023-04-15T11:48:10;7.15;;;5.45;;
37051;SDS011;22964;52.272;13.356;2023-04-15T11:50:37;9.02;;;5.70;;
37051;SDS011;22964;52.272;13.356;2023-04-15T11:53:06;8.73;;;6.18;;
37051;SDS011;22964;52.272;13.356;2023-04-15T11:55:45;7.00;;;5.70;;
37051;SDS011;22964;52.272;13.356;2023-04-15T11:58:16;8.30;;;6.05;;
37051;SDS011;22964;52.272;13.356;2023-04-15T12:00:58;7.53;;;5.60;;
37051;SDS011;22964;52.272;13.356;2023-04-15T12:03:35;7.53;;;5.63;;
37051;SDS011;22964;52.272;13.356;2023-04-15T12:08:46;7.80;;;5.50;;
37051;SDS011;22964;52.272;13.356;2023-04-15T12:11:13;6.80;;;5.15;;
37051;SDS011;22964;52.272;13.356;2023-04-15T12:13:42;6.72;;;4.95;;
37051;SDS011;22964;52.272;13.356;2023-04-15T12:16:09;7.30;;;5.15;;
37051;SDS011;22964;52.272;13.356;2023-04-15T12:18:38;8.02;;;5.47;;
37051;SDS011;22964;52.272;13.356;2023-04-15T12:21:09;6.38;;;5.30;;
37051;SDS011;22964;52.272;13.356;2023-04-15T12:26:04;7.05;;;5.00;;
37051;SDS011;22964;52.272;13.356;2023-04-15T12:28:33;6.47;;;5.18;;
37051;SDS011;22964;52.272;13.356;2023-04-15T12:31:05;7.13;;;5.10;;
37051;SDS011;22964;52.272;13.356;2023-04-15T12:33:35;6.88;;;5.18;;
37051;SDS011;22964;52.272;13.356;2023-04-15T12:36:02;7.35;;;5.30;;
37051;SDS011;22964;52.272;13.356;2023-04-15T12:38:28;7.80;;;5.55;;
37051;SDS011;22964;52.272;13.356;2023-04-15T12:40:55;5.43;;;4.43;;
37051;SDS011;22964;52.272;13.356;2023-04-15T12:43:22;6.70;;;5.32;;
37051;SDS011;22964;52.272;13.356;2023-04-15T12:45:48;6.95;;;5.18;;
37051;SDS011;22964;52.272;13.356;2023-04-15T12:48:13;5.75;;;4.50;;
37051;SDS011;22964;52.272;13.356;2023-04-15T12:50:39;5.93;;;4.90;;
37051;SDS011;22964;52.272;13.356;2023-04-15T12:53:05;5.95;;;4.80;;
37051;SDS011;22964;52.272;13.356;2023-04-15T12:55:31;6.72;;;4.72;;
37051;SDS011;22964;52.272;13.356;2023-04-15T12:57:56;5.80;;;4.60;;
37051;SDS011;22964;52.272;13.356;2023-04-15T13:00:22;5.75;;;4.60;;
37051;SDS011;22964;52.272;13.356;2023-04-15T13:02:49;6.47;;;4.90;;
37051;SDS011;22964;52.272;13.356;2023-04-15T13:05:16;5.40;;;4.80;;
37051;SDS011;22964;52.272;13.356;2023-04-15T13:07:42;5.45;;;4.15;;
37051;SDS011;22964;52.272;13.356;2023-04-15T13:10:07;5.45;;;4.47;;
37051;SDS011;22964;52.272;13.356;2023-04-15T13:12:33;6.97;;;4.50;;
37051;SDS011;22964;52.272;13.356;2023-04-15T13:15:01;6.03;;;4.60;;
37051;SDS011;22964;52.272;13.356;2023-04-15T13:17:30;5.25;;;4.38;;
37051;SDS011;22964;52.272;13.356;2023-04-15T13:19:56;6.35;;;4.70;;
37051;SDS011;22964;52.272;13.356;2023-04-15T13:22:21;8.07;;;4.47;;
37051;SDS011;22964;52.272;13.356;2023-04-15T13:24:47;5.30;;;4.45;;
37051;SDS011;22964;52.272;13.356;2023-04-15T13:27:13;6.47;;;4.85;;
37051;SDS011;22964;52.272;13.356;2023-04-15T13:29:39;5.28;;;4.35;;
37051;SDS011;22964;52.272;13.356;2023-04-15T13:32:05;8.13;;;4.72;;
37051;SDS011;22964;52.272;13.356;2023-04-15T13:34:31;8.38;;;4.90;;
37051;SDS011;22964;52.272;13.356;2023-04-15T13:36:56;8.45;;;4.75;;
37051;SDS011;22964;52.272;13.356;2023-04-15T13:39:22;5.82;;;4.68;;
37051;SDS011;22964;52.272;13.356;2023-04-15T13:41:48;7.20;;;5.32;;
37051;SDS011;22964;52.272;13.356;2023-04-15T13:44:14;7.72;;;5.25;;
37051;SDS011;22964;52.272;13.356;2023-04-15T13:46:39;6.95;;;5.13;;
37051;SDS011;22964;52.272;13.356;2023-04-15T13:49:08;6.47;;;4.78;;
37051;SDS011;22964;52.272;13.356;2023-04-15T13:51:34;6.43;;;5.05;;
37051;SDS011;22964;52.272;13.356;2023-04-15T13:54:05;5.90;;;4.60;;
37051;SDS011;22964;52.272;13.356;2023-04-15T13:56:31;7.55;;;4.63;;
37051;SDS011;22964;52.272;13.356;2023-04-15T13:58:57;5.65;;;4.70;;
37051;SDS011;22964;52.272;13.356;2023-04-15T14:01:25;6.63;;;4.82;;
37051;SDS011;22964;52.272;13.356;2023-04-15T14:03:52;6.47;;;4.45;;
37051;SDS011;22964;52.272;13.356;2023-04-15T14:06:17;7.70;;;4.80;;
37051;SDS011;22964;52.272;13.356;2023-04-15T14:08:44;6.13;;;4.82;;
37051;SDS011;22964;52.272;13.356;2023-04-15T14:11:10;6.70;;;4.90;;
37051;SDS011;22964;52.272;13.356;2023-04-15T14:13:36;5.93;;;4.82;;
37051;SDS011;22964;52.272;13.356;2023-04-15T14:16:02;6.57;;;4.97;;
37051;SDS011;22964;52.272;13.356;2023-04-15T14:18:28;5.93;;;4.65;;
37051;SDS011;22964;52.272;13.356;2023-04-15T14:20:54;6.10;;;4.97;;
37051;SDS011;22964;52.272;13.356;2023-04-15T14:23:20;6.32;;;4.90;;
37051;SDS011;22964;52.272;13.356;2023-04-15T14:25:46;5.93;;;4.75;;
37051;SDS011;22964;52.272;13.356;2023-04-15T14:28:12;8.35;;;5.40;;
37051;SDS011;22964;52.272;13.356;2023-04-15T14:30:38;6.25;;;4.72;;
37051;SDS011;22964;52.272;13.356;2023-04-15T14:33:04;6.13;;;5.05;;
37051;SDS011;22964;52.272;13.356;2023-04-15T14:35:30;5.40;;;4.70;;
37051;SDS011;22964;52.272;13.356;2023-04-15T14:37:56;6.80;;;5.03;;
37051;SDS011;22964;52.272;13.356;2023-04-15T14:40:22;6.78;;;5.07;;
37051;SDS011;22964;52.272;13.356;2023-04-15T14:42:48;5.97;;;4.85;;
37051;SDS011;22964;52.272;13.356;2023-04-15T14:45:13;6.82;;;5.28;;